createdAt,value
2017-05-14T00:01:06.063Z,99.99
2017-05-14T00:02:18.026Z,99.99
2017-05-14T00:03:30.552Z,99.99
2017-05-14T00:04:43.095Z,99.99
2017-05-14T00:05:55.314Z,99.99
2017-05-14T00:07:07.859Z,99.99
2017-05-14T00:08:20.409Z,99.99
2017-05-14T00:09:32.980Z,99.99
2017-05-14T00:10:45.522Z,99.99
2017-05-14T00:11:58.053Z,99.99
2017-05-14T00:13:10.617Z,99.99
2017-05-14T00:14:23.160Z,99.99
2017-05-14T00:15:35.398Z,99.99
2017-05-14T00:16:47.897Z,99.99
2017-05-14T00:18:00.444Z,99.99
2017-05-14T00:19:12.686Z,99.99
2017-05-14T00:20:25.232Z,99.99
2017-05-14T00:21:37.485Z,99.99
2017-05-14T00:22:50.009Z,99.99
2017-05-14T00:24:02.555Z,99.99
2017-05-14T00:25:14.798Z,99.99
2017-05-14T00:26:27.044Z,99.99
2017-05-14T00:27:39.549Z,99.99
2017-05-14T00:28:52.103Z,99.99
2017-05-14T00:30:04.610Z,99.99
2017-05-14T00:31:16.873Z,99.99
2017-05-14T00:32:29.398Z,99.99
2017-05-14T00:33:42.224Z,99.99
2017-05-14T00:34:54.740Z,99.99
2017-05-14T00:36:07.278Z,99.99
2017-05-14T00:37:19.825Z,99.99
2017-05-14T00:38:32.053Z,99.99
2017-05-14T00:39:44.872Z,99.99
2017-05-14T00:40:57.395Z,99.99
2017-05-14T00:42:09.645Z,99.99
2017-05-14T00:43:22.179Z,99.99
2017-05-14T00:44:34.954Z,99.99
2017-05-14T00:45:47.499Z,99.99
2017-05-14T00:47:00.099Z,99.99
2017-05-14T00:48:12.648Z,99.99
2017-05-14T00:49:24.887Z,99.99
2017-05-14T00:50:37.418Z,99.99
2017-05-14T00:51:49.678Z,99.99
2017-05-14T00:53:02.229Z,99.99
2017-05-14T00:54:14.767Z,99.99
2017-05-14T00:55:27.012Z,99.99
2017-05-14T00:56:39.508Z,99.99
2017-05-14T00:57:52.037Z,99.99
2017-05-14T00:59:04.535Z,99.99
2017-05-14T01:00:16.773Z,99.99
2017-05-14T01:01:29.307Z,99.99
2017-05-14T01:02:47.148Z,99.99
2017-05-14T01:04:00.987Z,99.99
2017-05-14T01:05:14.330Z,99.99
2017-05-14T01:06:26.859Z,99.99
2017-05-14T01:07:39.383Z,99.99
2017-05-14T01:08:51.877Z,99.99
2017-05-14T01:10:05.047Z,99.99
2017-05-14T01:11:17.598Z,99.99
2017-05-14T01:12:30.154Z,99.99
2017-05-14T01:13:42.401Z,99.99
2017-05-14T01:14:54.334Z,99.99
2017-05-14T01:16:06.900Z,99.99
2017-05-14T01:17:19.423Z,99.99
2017-05-14T01:18:31.952Z,99.99
2017-05-14T01:19:44.160Z,99.99
2017-05-14T01:20:56.413Z,99.99
2017-05-14T01:22:08.930Z,99.99
2017-05-14T01:23:21.130Z,99.99
2017-05-14T01:24:33.664Z,99.99
2017-05-14T01:25:45.911Z,99.99
2017-05-14T01:26:58.439Z,99.99
2017-05-14T01:28:10.688Z,99.99
2017-05-14T01:29:23.255Z,99.99
2017-05-14T01:30:35.505Z,99.99
2017-05-14T01:31:48.039Z,99.99
2017-05-14T01:33:00.572Z,99.99
2017-05-14T01:34:13.119Z,99.99
2017-05-14T01:35:25.627Z,99.99
2017-05-14T01:36:38.149Z,99.99
2017-05-14T01:37:50.677Z,99.99
2017-05-14T01:39:03.219Z,99.99
2017-05-14T01:40:15.144Z,99.99
2017-05-14T01:41:27.685Z,99.99
2017-05-14T01:42:40.239Z,99.99
2017-05-14T01:43:52.782Z,99.99
2017-05-14T01:45:04.995Z,99.99
2017-05-14T01:46:17.224Z,99.99
2017-05-14T01:47:29.762Z,99.99
2017-05-14T01:48:41.970Z,99.99
2017-05-14T01:49:54.514Z,99.99
2017-05-14T01:51:07.067Z,99.99
2017-05-14T01:52:19.632Z,99.99
2017-05-14T01:53:31.891Z,99.99
2017-05-14T01:54:44.694Z,99.99
2017-05-14T01:55:57.242Z,99.99
2017-05-14T01:57:09.791Z,99.99
2017-05-14T01:58:21.700Z,99.99
2017-05-14T01:59:34.232Z,99.99
2017-05-14T02:00:46.479Z,99.99
2017-05-14T02:01:58.724Z,99.99
2017-05-14T02:03:10.666Z,99.99
2017-05-14T02:04:22.908Z,99.99
2017-05-14T02:05:35.163Z,99.99
2017-05-14T02:06:47.725Z,99.99
2017-05-14T02:08:00.275Z,99.99
2017-05-14T02:09:12.523Z,99.99
2017-05-14T02:10:25.090Z,99.99
2017-05-14T02:11:37.634Z,99.99
2017-05-14T02:12:50.179Z,99.99
2017-05-14T02:14:02.701Z,99.99
2017-05-14T02:15:15.265Z,99.99
2017-05-14T02:16:27.521Z,99.99
2017-05-14T02:17:39.735Z,99.99
2017-05-14T02:18:51.941Z,99.99
2017-05-14T02:20:04.182Z,99.99
2017-05-14T02:21:16.426Z,99.99
2017-05-14T02:22:28.672Z,99.99
2017-05-14T02:23:40.918Z,99.99
2017-05-14T02:24:53.468Z,99.99
2017-05-14T02:26:05.992Z,99.99
2017-05-14T02:27:18.479Z,99.99
2017-05-14T02:28:30.998Z,99.99
2017-05-14T02:29:43.543Z,99.99
2017-05-14T02:30:55.770Z,99.99
2017-05-14T02:32:07.996Z,99.99
2017-05-14T02:33:20.239Z,99.99
2017-05-14T02:34:32.777Z,99.99
2017-05-14T02:35:45.310Z,99.99
2017-05-14T02:36:57.848Z,99.99
2017-05-14T02:38:10.101Z,99.99
2017-05-14T02:39:22.610Z,99.99
2017-05-14T02:40:35.143Z,99.99
2017-05-14T02:41:47.653Z,99.99
2017-05-14T02:43:00.203Z,99.99
2017-05-14T02:44:12.729Z,99.99
2017-05-14T02:45:24.978Z,99.99
2017-05-14T02:46:37.511Z,99.99
2017-05-14T02:47:50.045Z,99.99
2017-05-14T02:49:02.289Z,99.99
2017-05-14T02:50:14.811Z,99.99
2017-05-14T02:51:27.077Z,99.99
2017-05-14T02:52:39.599Z,99.99
2017-05-14T02:53:52.141Z,99.99
2017-05-14T02:55:04.695Z,99.99
2017-05-14T02:56:16.633Z,99.99
2017-05-14T02:57:29.185Z,99.99
2017-05-14T02:58:41.725Z,99.99
2017-05-14T02:59:54.501Z,99.99
2017-05-14T03:01:07.038Z,99.99
2017-05-14T03:02:19.616Z,99.99
2017-05-14T03:03:31.866Z,99.99
2017-05-14T03:04:44.462Z,99.99
2017-05-14T03:05:57.000Z,99.99
2017-05-14T03:07:09.527Z,99.99
2017-05-14T03:08:21.466Z,99.99
2017-05-14T03:09:33.708Z,99.99
2017-05-14T03:10:46.208Z,99.99
2017-05-14T03:11:58.459Z,99.99
2017-05-14T03:13:10.700Z,99.99
2017-05-14T03:14:22.946Z,99.99
2017-05-14T03:15:35.467Z,99.99
2017-05-14T03:16:48.012Z,99.99
2017-05-14T03:18:00.239Z,99.99
2017-05-14T03:19:12.479Z,99.99
2017-05-14T03:20:24.705Z,99.99
2017-05-14T03:21:36.942Z,99.99
2017-05-14T03:22:49.167Z,99.99
2017-05-14T03:24:01.743Z,99.99
2017-05-14T03:25:13.956Z,99.99
2017-05-14T03:26:26.485Z,99.99
2017-05-14T03:27:39.036Z,99.99
2017-05-14T03:28:51.576Z,99.99
2017-05-14T03:30:04.091Z,99.99
2017-05-14T03:31:16.610Z,99.99
2017-05-14T03:32:29.130Z,99.99
2017-05-14T03:33:41.660Z,99.99
2017-05-14T03:34:53.881Z,99.99
2017-05-14T03:36:06.126Z,99.99
2017-05-14T03:37:18.365Z,99.99
2017-05-14T03:38:30.911Z,99.99
2017-05-14T03:39:43.438Z,99.99
2017-05-14T03:40:55.681Z,99.99
2017-05-14T03:42:07.935Z,99.99
2017-05-14T03:43:20.169Z,99.99
2017-05-14T03:44:32.402Z,99.99
2017-05-14T03:45:44.946Z,99.99
2017-05-14T03:46:57.485Z,99.99
2017-05-14T03:48:09.711Z,99.99
2017-05-14T03:49:21.934Z,99.99
2017-05-14T03:50:34.480Z,99.99
2017-05-14T03:51:47.040Z,99.99
2017-05-14T03:52:59.573Z,99.99
2017-05-14T03:54:12.115Z,99.99
2017-05-14T03:55:24.642Z,99.99
2017-05-14T03:56:37.211Z,99.99
2017-05-14T03:57:49.745Z,99.99
2017-05-14T03:59:02.302Z,99.99
2017-05-14T04:00:14.551Z,99.99
2017-05-14T04:01:26.787Z,99.99
2017-05-14T04:02:38.782Z,99.99
2017-05-14T04:03:51.014Z,99.99
2017-05-14T04:05:03.554Z,99.99
2017-05-14T04:06:15.770Z,99.99
2017-05-14T04:07:28.313Z,99.99
2017-05-14T04:08:40.819Z,99.99
2017-05-14T04:09:53.092Z,99.99
2017-05-14T04:11:05.706Z,99.99
2017-05-14T04:12:17.663Z,99.99
2017-05-14T04:13:30.193Z,99.99
2017-05-14T04:14:42.753Z,99.99
2017-05-14T04:15:55.286Z,99.99
2017-05-14T04:17:07.816Z,99.99
2017-05-14T04:18:20.359Z,99.99
2017-05-14T04:19:32.898Z,99.99
2017-05-14T04:20:45.421Z,99.99
2017-05-14T04:21:57.942Z,99.99
2017-05-14T04:23:10.485Z,99.99
2017-05-14T04:24:22.688Z,99.99
2017-05-14T04:25:35.238Z,99.99
2017-05-14T04:26:48.047Z,99.99
2017-05-14T04:28:00.572Z,99.99
2017-05-14T04:29:13.092Z,99.99
2017-05-14T04:30:25.641Z,99.99
2017-05-14T04:31:37.860Z,99.99
2017-05-14T04:32:50.414Z,99.99
2017-05-14T04:34:02.958Z,99.99
2017-05-14T04:35:15.504Z,99.99
2017-05-14T04:36:28.049Z,99.99
2017-05-14T04:37:40.297Z,99.99
2017-05-14T04:38:52.531Z,99.99
2017-05-14T04:40:04.752Z,99.99
2017-05-14T04:41:16.998Z,99.99
2017-05-14T04:42:29.547Z,99.99
2017-05-14T04:43:41.479Z,99.99
2017-05-14T04:44:54.019Z,99.99
2017-05-14T04:46:06.567Z,99.99
2017-05-14T04:47:18.828Z,99.99
2017-05-14T04:48:31.302Z,99.99
2017-05-14T04:49:43.827Z,99.99
2017-05-14T04:50:56.068Z,99.99
2017-05-14T04:52:08.622Z,99.99
2017-05-14T04:53:21.164Z,99.99
2017-05-14T04:54:33.410Z,99.99
2017-05-14T04:55:45.928Z,99.99
2017-05-14T04:56:58.437Z,99.99
2017-05-14T04:58:10.976Z,99.99
2017-05-14T04:59:23.519Z,99.99
2017-05-14T05:00:36.087Z,99.99
2017-05-14T05:01:48.604Z,99.99
2017-05-14T05:03:00.832Z,99.99
2017-05-14T05:04:13.057Z,99.99
2017-05-14T05:05:25.300Z,99.99
2017-05-14T05:06:37.841Z,99.99
2017-05-14T05:07:50.410Z,99.99
2017-05-14T05:09:02.635Z,99.99
2017-05-14T05:10:15.482Z,99.99
2017-05-14T05:11:27.735Z,99.99
2017-05-14T05:12:40.253Z,99.99
2017-05-14T05:13:52.499Z,99.99
2017-05-14T05:15:05.010Z,99.99
2017-05-14T05:16:16.935Z,99.99
2017-05-14T05:17:29.474Z,99.99
2017-05-14T05:18:41.708Z,99.99
2017-05-14T05:19:53.945Z,99.99
2017-05-14T05:21:06.796Z,99.99
2017-05-14T05:22:19.064Z,99.99
2017-05-14T05:23:31.338Z,99.99
2017-05-14T05:24:43.861Z,99.99
2017-05-14T05:25:56.107Z,99.99
2017-05-14T05:27:08.647Z,99.99
2017-05-14T05:28:21.193Z,99.99
2017-05-14T05:29:33.721Z,99.99
2017-05-14T05:30:46.266Z,99.99
2017-05-14T05:31:59.077Z,99.99
2017-05-14T05:33:11.633Z,99.99
2017-05-14T05:34:23.879Z,99.99
2017-05-14T05:35:36.118Z,99.99
2017-05-14T05:36:48.371Z,99.99
2017-05-14T05:38:00.914Z,99.99
2017-05-14T05:39:13.462Z,99.99
2017-05-14T05:40:25.977Z,99.99
2017-05-14T05:41:38.510Z,99.99
2017-05-14T05:42:51.051Z,99.99
2017-05-14T05:44:03.268Z,99.99
2017-05-14T05:45:15.489Z,99.99
2017-05-14T05:46:27.706Z,99.99
2017-05-14T05:47:40.257Z,99.99
2017-05-14T05:48:52.782Z,99.99
2017-05-14T05:50:05.322Z,99.99
2017-05-14T05:51:17.573Z,99.99
2017-05-14T05:52:30.114Z,99.99
2017-05-14T05:53:42.060Z,99.99
2017-05-14T05:54:54.608Z,99.99
2017-05-14T05:56:07.153Z,99.99
2017-05-14T05:57:19.696Z,99.99
2017-05-14T05:58:32.215Z,99.99
2017-05-14T05:59:44.741Z,99.99
2017-05-14T06:00:57.265Z,99.99
2017-05-14T06:02:09.528Z,99.99
2017-05-14T06:03:22.119Z,99.99
2017-05-14T06:04:34.349Z,99.99
2017-05-14T06:05:46.887Z,99.99
2017-05-14T06:06:59.401Z,99.99
2017-05-14T06:08:11.927Z,99.99
2017-05-14T06:09:24.149Z,99.99
2017-05-14T06:10:36.381Z,99.99
2017-05-14T06:11:48.927Z,99.99
2017-05-14T06:13:01.463Z,99.99
2017-05-14T06:14:13.366Z,99.99
2017-05-14T06:15:25.908Z,99.99
2017-05-14T06:16:38.134Z,99.99
2017-05-14T06:17:50.654Z,99.99
2017-05-14T06:19:02.894Z,99.99
2017-05-14T06:20:15.445Z,99.99
2017-05-14T06:21:27.992Z,99.99
2017-05-14T06:22:40.215Z,99.99
2017-05-14T06:23:52.750Z,99.99
2017-05-14T06:25:05.297Z,99.99
2017-05-14T06:26:17.517Z,99.33
2017-05-14T06:27:30.056Z,99.29
2017-05-14T06:28:42.288Z,98.43
2017-05-14T06:29:54.834Z,98.67
2017-05-14T06:31:07.076Z,98.67
2017-05-14T06:32:19.029Z,97.38
2017-05-14T06:33:31.272Z,95.6
2017-05-14T06:34:43.814Z,94.35
2017-05-14T06:35:56.359Z,94.12
2017-05-14T06:37:09.193Z,94.16
2017-05-14T06:38:21.727Z,92.67
2017-05-14T06:39:34.257Z,92.67
2017-05-14T06:40:46.820Z,90.89
2017-05-14T06:41:59.053Z,89.4
2017-05-14T06:43:11.568Z,89.4
2017-05-14T06:44:24.090Z,89.25
2017-05-14T06:45:36.627Z,87.66
2017-05-14T06:46:48.586Z,87.27
2017-05-14T06:48:01.151Z,86.74
2017-05-14T06:49:13.401Z,87.07
2017-05-14T06:50:25.969Z,85.43
2017-05-14T06:51:38.219Z,84.99
2017-05-14T06:52:50.778Z,85.03
2017-05-14T06:54:03.002Z,84.07
2017-05-14T06:55:15.547Z,84.31
2017-05-14T06:56:27.824Z,83.34
2017-05-14T06:57:40.369Z,82.9
2017-05-14T06:58:52.907Z,83.33
2017-05-14T07:00:05.156Z,82.56
2017-05-14T07:01:16.784Z,82.69
2017-05-14T07:02:29.020Z,80.99
2017-05-14T07:03:41.573Z,81.19
2017-05-14T07:04:54.111Z,81.32
2017-05-14T07:06:06.663Z,79.68
2017-05-14T07:07:18.911Z,78.56
2017-05-14T07:08:31.162Z,78.08
2017-05-14T07:09:43.720Z,77.98
2017-05-14T07:10:56.252Z,78.41
2017-05-14T07:12:08.824Z,77.53
2017-05-14T07:13:21.060Z,77.37
2017-05-14T07:14:33.604Z,77.42
2017-05-14T07:15:46.107Z,75.77
2017-05-14T07:16:58.354Z,74.6
2017-05-14T07:18:10.595Z,75.13
2017-05-14T07:19:23.161Z,75.16
2017-05-14T07:20:35.722Z,72.16
2017-05-14T07:21:47.983Z,71.22
2017-05-14T07:23:00.550Z,71.36
2017-05-14T07:24:12.807Z,69.22
2017-05-14T07:25:25.067Z,69.32
2017-05-14T07:26:37.624Z,68.57
2017-05-14T07:27:50.169Z,63.91
2017-05-14T07:29:02.740Z,65.56
2017-05-14T07:30:15.311Z,66.44
2017-05-14T07:31:28.184Z,66.47
2017-05-14T07:32:40.742Z,65.5
2017-05-14T07:33:53.038Z,65.59
2017-05-14T07:35:05.571Z,63.65
2017-05-14T07:36:17.538Z,63.87
2017-05-14T07:37:30.084Z,61.93
2017-05-14T07:38:42.627Z,61.93
2017-05-14T07:39:55.154Z,61.18
2017-05-14T07:41:07.718Z,59.27
2017-05-14T07:42:20.296Z,59.43
2017-05-14T07:43:32.856Z,59.14
2017-05-14T07:44:45.396Z,58.65
2017-05-14T07:45:57.956Z,57.78
2017-05-14T07:47:09.930Z,58.62
2017-05-14T07:48:22.225Z,59.79
2017-05-14T07:49:34.496Z,59.99
2017-05-14T07:50:47.043Z,60.28
2017-05-14T07:51:59.003Z,60.67
2017-05-14T07:53:11.551Z,60.57
2017-05-14T07:54:24.105Z,59.89
2017-05-14T07:55:36.669Z,59.95
2017-05-14T07:56:48.915Z,60.05
2017-05-14T07:58:01.185Z,60.25
2017-05-14T07:59:13.732Z,60.44
2017-05-14T08:00:26.306Z,60.35
2017-05-14T08:01:38.553Z,60.15
2017-05-14T08:02:51.099Z,59.54
2017-05-14T08:04:03.364Z,59.83
2017-05-14T08:05:15.654Z,60.31
2017-05-14T08:06:27.883Z,60.22
2017-05-14T08:07:40.139Z,59.25
2017-05-14T08:08:52.723Z,59.34
2017-05-14T08:10:05.318Z,59.83
2017-05-14T08:11:17.269Z,59.54
2017-05-14T08:12:29.828Z,60.12
2017-05-14T08:13:41.540Z,58.11
2017-05-14T08:14:54.078Z,58.01
2017-05-14T08:16:06.630Z,58.31
2017-05-14T08:17:18.577Z,58.69
2017-05-14T08:18:30.820Z,58.79
2017-05-14T08:19:43.387Z,58.95
2017-05-14T08:20:55.654Z,57.98
2017-05-14T08:22:07.949Z,58.37
2017-05-14T08:23:20.504Z,58.57
2017-05-14T08:24:32.452Z,58.86
2017-05-14T08:25:44.400Z,59.12
2017-05-14T08:26:56.966Z,59.12
2017-05-14T08:28:09.491Z,57.86
2017-05-14T08:29:21.733Z,58.03
2017-05-14T08:30:34.280Z,59
2017-05-14T08:31:46.596Z,60.13
2017-05-14T08:32:59.163Z,59.84
2017-05-14T08:34:11.688Z,60.3
2017-05-14T08:35:23.955Z,60.1
2017-05-14T08:36:36.501Z,60.39
2017-05-14T08:37:49.079Z,60.85
2017-05-14T08:39:01.626Z,62.62
2017-05-14T08:40:13.896Z,62.49
2017-05-14T08:41:26.442Z,62.49
2017-05-14T08:42:39.030Z,62.59
2017-05-14T08:43:51.590Z,62.49
2017-05-14T08:45:04.147Z,62.3
2017-05-14T08:46:16.730Z,62.49
2017-05-14T08:47:29.294Z,62.79
2017-05-14T08:48:41.870Z,62.79
2017-05-14T08:49:54.430Z,63.56
2017-05-14T08:51:06.680Z,64.24
2017-05-14T08:52:19.257Z,62.4
2017-05-14T08:53:31.220Z,63.56
2017-05-14T08:54:43.451Z,62.69
2017-05-14T08:55:55.746Z,62.59
2017-05-14T08:57:08.356Z,62.49
2017-05-14T08:58:21.186Z,62.46
2017-05-14T08:59:33.734Z,64.3
2017-05-14T09:00:45.986Z,65.08
2017-05-14T09:01:58.244Z,63.92
2017-05-14T09:03:10.520Z,63.92
2017-05-14T09:04:23.090Z,64.01
2017-05-14T09:05:35.369Z,64.3
2017-05-14T09:06:47.627Z,64.2
2017-05-14T09:07:59.877Z,64.53
2017-05-14T09:09:12.719Z,63.37
2017-05-14T09:10:24.986Z,62.59
2017-05-14T09:11:37.218Z,62.49
2017-05-14T09:12:49.778Z,62.69
2017-05-14T09:14:02.310Z,62.59
2017-05-14T09:15:14.873Z,62.82
2017-05-14T09:16:27.141Z,62.62
2017-05-14T09:17:39.740Z,62.62
2017-05-14T09:18:52.290Z,60.91
2017-05-14T09:20:04.836Z,59.84
2017-05-14T09:21:17.082Z,59.94
2017-05-14T09:22:29.333Z,60.23
2017-05-14T09:23:41.302Z,59.64
2017-05-14T09:24:53.549Z,58.97
2017-05-14T09:26:05.808Z,58.09
2017-05-14T09:27:18.079Z,57.9
2017-05-14T09:28:30.629Z,58
2017-05-14T09:29:43.174Z,58.19
2017-05-14T09:30:55.446Z,58.87
2017-05-14T09:32:07.724Z,58.31
2017-05-14T09:33:19.995Z,58.61
2017-05-14T09:34:32.541Z,58.7
2017-05-14T09:35:45.109Z,58.93
2017-05-14T09:36:57.098Z,58.64
2017-05-14T09:38:09.653Z,59.03
2017-05-14T09:39:21.924Z,58.37
2017-05-14T09:40:34.470Z,57.11
2017-05-14T09:41:46.410Z,56.43
2017-05-14T09:42:58.662Z,57.4
2017-05-14T09:44:10.947Z,57.89
2017-05-14T09:45:22.895Z,57.47
2017-05-14T09:46:35.147Z,58.25
2017-05-14T09:47:47.684Z,56.6
2017-05-14T09:49:00.313Z,57.08
2017-05-14T09:50:12.605Z,57.18
2017-05-14T09:51:24.877Z,57.18
2017-05-14T09:52:37.369Z,58.15
2017-05-14T09:53:49.939Z,57.86
2017-05-14T09:55:02.467Z,58.05
2017-05-14T09:56:14.731Z,58.25
2017-05-14T09:57:27.281Z,57.67
2017-05-14T09:58:39.825Z,58.18
2017-05-14T09:59:52.079Z,57.4
2017-05-14T10:01:04.694Z,56.72
2017-05-14T10:02:17.267Z,56.52
2017-05-14T10:03:29.517Z,56.62
2017-05-14T10:04:42.064Z,56.82
2017-05-14T10:05:54.311Z,57.31
2017-05-14T10:07:06.904Z,56.72
2017-05-14T10:08:18.524Z,56.04
2017-05-14T10:09:31.086Z,56.14
2017-05-14T10:10:43.045Z,56.04
2017-05-14T10:11:55.656Z,56.34
2017-05-14T10:13:07.925Z,56.24
2017-05-14T10:14:20.146Z,56.43
2017-05-14T10:15:32.699Z,57.08
2017-05-14T10:16:44.923Z,57.86
2017-05-14T10:17:57.474Z,57.96
2017-05-14T10:19:10.030Z,57.86
2017-05-14T10:20:22.536Z,58.22
2017-05-14T10:21:35.103Z,57.73
2017-05-14T10:22:47.644Z,57.25
2017-05-14T10:24:00.195Z,57.44
2017-05-14T10:25:12.733Z,57.54
2017-05-14T10:26:24.938Z,56.47
2017-05-14T10:27:37.175Z,56.67
2017-05-14T10:28:49.733Z,56.76
2017-05-14T10:30:02.304Z,56.6
2017-05-14T10:31:14.545Z,55.82
2017-05-14T10:32:27.072Z,54.56
2017-05-14T10:33:39.641Z,54.88
2017-05-14T10:34:52.200Z,54.68
2017-05-14T10:36:04.758Z,54.8
2017-05-14T10:37:17.021Z,55.55
2017-05-14T10:38:29.265Z,56.24
2017-05-14T10:39:41.795Z,56.34
2017-05-14T10:40:54.341Z,56.43
2017-05-14T10:42:06.925Z,55.58
2017-05-14T10:43:19.472Z,55.19
2017-05-14T10:44:32.025Z,55
2017-05-14T10:45:44.643Z,54.8
2017-05-14T10:46:57.188Z,55.29
2017-05-14T10:48:09.484Z,56.04
2017-05-14T10:49:21.458Z,56.34
2017-05-14T10:50:34.005Z,55.85
2017-05-14T10:51:46.554Z,56.04
2017-05-14T10:52:59.169Z,55.82
2017-05-14T10:54:11.720Z,56.4
2017-05-14T10:55:23.656Z,56.89
2017-05-14T10:56:35.905Z,56.89
2017-05-14T10:57:48.159Z,57.34
2017-05-14T10:59:00.704Z,57.15
2017-05-14T11:00:13.272Z,57.64
2017-05-14T11:01:25.539Z,58
2017-05-14T11:02:38.110Z,58.29
2017-05-14T11:03:50.351Z,58.65
2017-05-14T11:05:02.598Z,58.65
2017-05-14T11:06:14.255Z,58.84
2017-05-14T11:07:26.826Z,59.39
2017-05-14T11:08:39.064Z,59.88
2017-05-14T11:09:51.011Z,60.07
2017-05-14T11:11:03.565Z,60.27
2017-05-14T11:12:16.102Z,60.17
2017-05-14T11:13:28.648Z,59.78
2017-05-14T11:14:41.220Z,59.39
2017-05-14T11:15:53.465Z,60.07
2017-05-14T11:17:06.019Z,59.49
2017-05-14T11:18:18.570Z,58.65
2017-05-14T11:19:31.113Z,57.68
2017-05-14T11:20:43.679Z,55.87
2017-05-14T11:21:55.948Z,56.18
2017-05-14T11:23:08.174Z,54.85
2017-05-14T11:24:20.758Z,54.88
2017-05-14T11:25:32.679Z,53.71
2017-05-14T11:26:45.212Z,53.83
2017-05-14T11:27:57.147Z,53.54
2017-05-14T11:29:09.675Z,53.16
2017-05-14T11:30:21.642Z,52.98
2017-05-14T11:31:34.184Z,51.82
2017-05-14T11:32:46.737Z,51.17
2017-05-14T11:33:59.275Z,50.12
2017-05-14T11:35:11.496Z,47.42
2017-05-14T11:36:24.029Z,47.63
2017-05-14T11:37:36.621Z,46.1
2017-05-14T11:38:49.217Z,45.71
2017-05-14T11:40:01.829Z,45.71
2017-05-14T11:41:14.057Z,45.73
2017-05-14T11:42:26.629Z,45.25
2017-05-14T11:43:39.201Z,44.78
2017-05-14T11:44:51.788Z,43.92
2017-05-14T11:46:04.339Z,44.38
2017-05-14T11:47:16.657Z,44.6
2017-05-14T11:48:28.909Z,44.51
2017-05-14T11:49:41.476Z,43.82
2017-05-14T11:50:53.418Z,43.75
2017-05-14T11:52:05.975Z,43.46
2017-05-14T11:53:18.243Z,42.5
2017-05-14T11:54:30.809Z,42.6
2017-05-14T11:55:43.377Z,41.64
2017-05-14T11:56:55.930Z,42.15
2017-05-14T11:58:08.196Z,41.54
2017-05-14T11:59:20.464Z,42.15
2017-05-14T12:00:33.022Z,42.17
2017-05-14T12:01:45.585Z,42.36
2017-05-14T12:02:57.527Z,42.66
2017-05-14T12:04:09.805Z,41.68
2017-05-14T12:05:22.072Z,42.17
2017-05-14T12:06:34.639Z,42.46
2017-05-14T12:07:47.215Z,43.71
2017-05-14T12:08:59.482Z,44.38
2017-05-14T12:10:12.035Z,45.04
2017-05-14T12:11:24.574Z,45.53
2017-05-14T12:12:37.102Z,46.09
2017-05-14T12:13:49.698Z,46.56
2017-05-14T12:15:02.222Z,47.51
2017-05-14T12:16:14.471Z,47.02
2017-05-14T12:17:27.039Z,48.07
2017-05-14T12:18:39.606Z,48.44
2017-05-14T12:19:51.857Z,48.63
2017-05-14T12:21:04.427Z,48.54
2017-05-14T12:22:16.989Z,49.58
2017-05-14T12:23:29.540Z,49.66
2017-05-14T12:24:42.111Z,50.43
2017-05-14T12:25:54.663Z,51.55
2017-05-14T12:27:07.199Z,52.04
2017-05-14T12:28:19.466Z,52.4
2017-05-14T12:29:32.020Z,52.57
2017-05-14T12:30:44.816Z,52.96
2017-05-14T12:31:57.361Z,53.91
2017-05-14T12:33:09.913Z,53.61
2017-05-14T12:34:22.453Z,53.69
2017-05-14T12:35:35.016Z,53.66
2017-05-14T12:36:47.566Z,53.66
2017-05-14T12:38:00.121Z,53.83
2017-05-14T12:39:12.683Z,53.63
2017-05-14T12:40:25.257Z,54.48
2017-05-14T12:41:37.804Z,54.67
2017-05-14T12:42:50.051Z,54.84
2017-05-14T12:44:02.300Z,54.84
2017-05-14T12:45:14.862Z,55.42
2017-05-14T12:46:27.430Z,56.07
2017-05-14T12:47:39.983Z,56.36
2017-05-14T12:48:52.504Z,56.75
2017-05-14T12:50:05.044Z,57.4
2017-05-14T12:51:16.992Z,57.98
2017-05-14T12:52:29.537Z,58.53
2017-05-14T12:53:42.080Z,59.21
2017-05-14T12:54:54.329Z,59.69
2017-05-14T12:56:06.879Z,59.98
2017-05-14T12:57:19.120Z,61.33
2017-05-14T12:58:31.651Z,62.27
2017-05-14T12:59:44.217Z,62.56
2017-05-14T13:00:56.734Z,62.66
2017-05-14T13:02:09.262Z,63.21
2017-05-14T13:03:21.230Z,63.69
2017-05-14T13:04:33.771Z,64.76
2017-05-14T13:05:46.327Z,64.82
2017-05-14T13:06:58.867Z,65.78
2017-05-14T13:08:10.784Z,65.95
2017-05-14T13:09:23.345Z,66.91
2017-05-14T13:10:35.576Z,67.4
2017-05-14T13:11:47.808Z,68.62
2017-05-14T13:13:00.339Z,69
2017-05-14T13:14:12.585Z,70.26
2017-05-14T13:15:25.109Z,71.42
2017-05-14T13:16:37.656Z,71.48
2017-05-14T13:17:49.925Z,73.11
2017-05-14T13:19:02.445Z,73.02
2017-05-14T13:20:14.977Z,73.6
2017-05-14T13:21:27.213Z,73.85
2017-05-14T13:22:39.758Z,74.33
2017-05-14T13:23:51.988Z,74.91
2017-05-14T13:25:04.224Z,75.26
2017-05-14T13:26:16.427Z,75.45
2017-05-14T13:27:28.966Z,76.03
2017-05-14T13:28:41.174Z,76.38
2017-05-14T13:29:53.740Z,76.28
2017-05-14T13:31:06.253Z,76.67
2017-05-14T13:32:18.773Z,76.48
2017-05-14T13:33:31.020Z,76.86
2017-05-14T13:34:43.566Z,76.96
2017-05-14T13:35:55.773Z,77.15
2017-05-14T13:37:08.312Z,77.11
2017-05-14T13:38:20.863Z,77.31
2017-05-14T13:39:33.403Z,77.69
2017-05-14T13:40:45.924Z,77.78
2017-05-14T13:41:57.897Z,77.98
2017-05-14T13:43:10.145Z,77.98
2017-05-14T13:44:22.675Z,78.23
2017-05-14T13:45:35.266Z,78.33
2017-05-14T13:46:47.560Z,78.42
2017-05-14T13:48:00.122Z,78.42
2017-05-14T13:49:12.370Z,78.52
2017-05-14T13:50:24.913Z,78.71
2017-05-14T13:51:37.766Z,79.19
2017-05-14T13:52:50.315Z,79.48
2017-05-14T13:54:02.559Z,80.06
2017-05-14T13:55:14.807Z,81.3
2017-05-14T13:56:27.346Z,82.42
2017-05-14T13:57:39.866Z,83.72
2017-05-14T13:58:52.417Z,85.02
2017-05-14T14:00:04.663Z,84.54
2017-05-14T14:01:16.608Z,84.83
2017-05-14T14:02:29.176Z,85.46
2017-05-14T14:03:41.718Z,86.52
2017-05-14T14:04:53.949Z,86.99
2017-05-14T14:06:05.887Z,87.62
2017-05-14T14:07:17.834Z,88.3
2017-05-14T14:08:30.080Z,88.78
2017-05-14T14:09:42.622Z,89.07
2017-05-14T14:10:55.143Z,89.31
2017-05-14T14:12:07.672Z,89.02
2017-05-14T14:13:20.218Z,89.69
2017-05-14T14:14:32.743Z,89.79
2017-05-14T14:15:45.301Z,89.84
2017-05-14T14:16:57.830Z,90.13
2017-05-14T14:18:10.079Z,89.94
2017-05-14T14:19:22.070Z,90.22
2017-05-14T14:20:34.611Z,90.61
2017-05-14T14:21:47.171Z,90.7
2017-05-14T14:22:59.712Z,91.28
2017-05-14T14:24:12.276Z,91.76
2017-05-14T14:25:24.506Z,91.81
2017-05-14T14:26:37.048Z,92.68
2017-05-14T14:27:49.272Z,93.15
2017-05-14T14:29:01.811Z,93.35
2017-05-14T14:30:14.036Z,94.12
2017-05-14T14:31:26.602Z,94.17
2017-05-14T14:32:39.155Z,94.35
2017-05-14T14:33:51.673Z,94.26
2017-05-14T14:35:03.921Z,94.35
2017-05-14T14:36:16.190Z,94.54
2017-05-14T14:37:28.428Z,94.64
2017-05-14T14:38:40.960Z,94.31
2017-05-14T14:39:53.219Z,95.07
2017-05-14T14:41:05.466Z,94.69
2017-05-14T14:42:17.971Z,95.07
2017-05-14T14:43:30.507Z,95.17
2017-05-14T14:44:43.036Z,95.56
2017-05-14T14:45:55.587Z,95.56
2017-05-14T14:47:08.133Z,95.98
2017-05-14T14:48:20.077Z,96.56
2017-05-14T14:49:32.649Z,96.32
2017-05-14T14:50:45.212Z,96.47
2017-05-14T14:51:57.765Z,97.14
2017-05-14T14:53:10.029Z,96.66
2017-05-14T14:54:22.271Z,97.33
2017-05-14T14:55:34.500Z,97.42
2017-05-14T14:56:46.742Z,97.52
2017-05-14T14:57:59.284Z,97.8
2017-05-14T14:59:11.508Z,97.42
2017-05-14T15:00:24.062Z,98
2017-05-14T15:01:36.321Z,97.8
2017-05-14T15:02:48.853Z,97.8
2017-05-14T15:04:01.092Z,97.8
2017-05-14T15:05:13.617Z,98
2017-05-14T15:06:26.133Z,97.71
2017-05-14T15:07:38.077Z,98.38
2017-05-14T15:08:50.301Z,98
2017-05-14T15:10:02.846Z,97.8
2017-05-14T15:11:15.067Z,98.1
2017-05-14T15:12:27.327Z,98.1
2017-05-14T15:13:39.867Z,98.67
2017-05-14T15:14:52.406Z,98.76
2017-05-14T15:16:04.980Z,98.1
2017-05-14T15:17:16.922Z,97.9
2017-05-14T15:18:29.489Z,98.38
2017-05-14T15:19:41.746Z,98.38
2017-05-14T15:20:53.985Z,97.9
2017-05-14T15:22:05.918Z,98.1
2017-05-14T15:23:18.455Z,98
2017-05-14T15:24:30.969Z,97.71
2017-05-14T15:25:43.498Z,97.9
2017-05-14T15:26:56.018Z,98
2017-05-14T15:28:08.560Z,98.19
2017-05-14T15:29:20.510Z,98.1
2017-05-14T15:30:33.064Z,97.8
2017-05-14T15:31:45.297Z,98.1
2017-05-14T15:32:57.866Z,97.95
2017-05-14T15:34:10.122Z,97.9
2017-05-14T15:35:22.682Z,97.61
2017-05-14T15:36:34.931Z,97.52